KIBM

Kimball Municipal/Robert E Arraj Field Airport

Kimball, Nebraska, USA
METAR KIBM 180835Z AUTO 29007KT 10SM CLR M05/M07 A2995 RMK AO2 T10551072
Observed Flight Rules
Dec-18 @ 08:35 UTC (17 minutes ago) Visual Flight Rules
Wind Visibility Clouds
290° at 7 knots 10 miles
  • Clear skies
Temperatures Readings
Current -6°C / 21°F
Dewpoint -7°C / 19°F
Humidity 93%
Altimeter 29.95" Hg
Pressure 1014 hPa
Elevation 1501
METAR KIBM 180835Z AUTO 29007KT 10SM CLR M05/M07 A2995 RMK AO2 T10551072
Observed Flight Rules
Dec-18 @ 08:35 UTC
(17 minutes ago)
VFR
Wind Visibility
290° at 7 knots 10 miles
Clouds
  • Clear skies
Temperature Dewpoint
-6°C / 21°F -7°C / 19°F
Humidity Altimeter Pressure
93% 29.95" Hg 1014 hPa